Time;durP1;ratioP1;P1;durP2;ratioP2;P2;SDS_P1;SDS_P2;PMS_P1;PMS_P2;Temp;Humidity;BMP_temperature;BMP_pressure;BME280_temperature;BME280_humidity;BME280_pressure;Samples;Min_cycle;Max_cycle;Signal;HPM_P1;HPM_P2
2022/12/20 00:00:20;;;;;;;32.33;21.13;;;;;;;3.19;75.36;100466.28;1088534;54;20102;-85
2022/12/20 00:01:26;;;;;;;31.92;21.10;;;;;;;3.24;75.19;100469.53;1096515;39;20682;-82
2022/12/20 00:02:31;;;;;;;31.20;20.20;;;;;;;3.26;75.02;100467.63;1088472;54;20022;-83
2022/12/20 00:03:33;;;;;;;39.42;22.42;;;;;;;3.22;75.24;100466.97;1088607;54;20023;-84
2022/12/20 00:04:40;;;;;;;32.88;21.48;;;;;;;3.19;75.32;100464.53;1088517;54;20034;-81
2022/12/20 00:05:43;;;;;;;33.13;21.02;;;;;;;3.18;75.46;100468.09;1105743;46;20763;-82
2022/12/20 00:06:57;;;;;;;33.42;22.05;;;;;;;3.19;75.46;100472.44;1088429;54;20032;-84
2022/12/20 00:07:59;;;;;;;35.63;22.48;;;;;;;3.20;75.47;100474.16;1088399;54;20050;-84
2022/12/20 00:09:05;;;;;;;33.10;19.80;;;;;;;3.24;75.16;100473.03;1094388;39;20692;-82
2022/12/20 00:10:11;;;;;;;30.95;19.92;;;;;;;3.27;75.54;100475.50;1088327;54;20034;-86
2022/12/20 00:11:16;;;;;;;33.47;22.33;;;;;;;3.22;75.29;100472.25;1088377;54;20035;-83
2022/12/20 00:12:18;;;;;;;32.47;21.23;;;;;;;3.21;75.38;100464.41;1088353;54;20039;-85
2022/12/20 00:13:24;;;;;;;33.85;20.27;;;;;;;3.27;75.44;100466.69;1088401;54;20041;-83
2022/12/20 00:14:26;;;;;;;31.40;19.65;;;;;;;3.34;75.28;100459.28;1088385;54;20042;-83
2022/12/20 00:15:30;;;;;;;31.83;20.42;;;;;;;3.30;75.17;100458.63;1089468;39;20719;-83
2022/12/20 00:16:35;;;;;;;32.58;21.73;;;;;;;3.29;75.18;100459.53;1088326;54;20078;-84
2022/12/20 00:17:42;;;;;;;37.47;22.10;;;;;;;3.22;75.60;100451.13;1088361;54;20022;-83
2022/12/20 00:18:48;;;;;;;36.22;23.45;;;;;;;3.22;75.57;100460.84;1088399;54;20018;-85
2022/12/20 00:19:50;;;;;;;35.05;21.88;;;;;;;3.22;75.69;100453.75;1088354;54;20813;-83
2022/12/20 00:21:05;;;;;;;35.13;23.52;;;;;;;3.20;75.63;100453.00;1088263;54;20019;-83
2022/12/20 00:22:06;;;;;;;36.75;23.33;;;;;;;3.21;75.79;100444.13;1088412;54;20027;-84
2022/12/20 00:23:12;;;;;;;38.20;23.75;;;;;;;3.20;75.85;100442.44;1088355;54;20106;-82
2022/12/20 00:24:16;;;;;;;34.08;21.65;;;;;;;3.19;76.07;100440.75;1088470;54;20804;-84
2022/12/20 00:25:19;;;;;;;35.95;22.63;;;;;;;3.17;75.96;100447.91;1088355;54;20091;-83
2022/12/20 00:26:26;;;;;;;34.55;21.63;;;;;;;3.21;75.74;100438.84;1088397;54;20811;-83
2022/12/20 00:27:28;;;;;;;34.47;20.77;;;;;;;3.18;75.76;100444.31;1088420;54;20023;-83
2022/12/20 00:28:36;;;;;;;33.20;22.17;;;;;;;3.22;75.58;100440.53;1088297;54;20057;-83
2022/12/20 00:29:38;;;;;;;35.30;22.17;;;;;;;3.28;75.39;100442.84;1088371;54;20772;-84
2022/12/20 00:30:45;;;;;;;29.80;20.33;;;;;;;3.27;75.34;100438.50;1088283;54;20030;-83
2022/12/20 00:31:51;;;;;;;33.08;21.50;;;;;;;3.25;75.71;100439.53;1088170;54;20045;-84
2022/12/20 00:33:00;;;;;;;32.38;21.40;;;;;;;3.23;75.48;100438.78;1088320;54;20037;-83
2022/12/20 00:34:02;;;;;;;36.33;22.70;;;;;;;3.23;75.56;100434.31;1088266;54;20026;-82
2022/12/20 00:35:08;;;;;;;34.17;21.60;;;;;;;3.23;75.61;100442.25;1088476;54;20018;-83
2022/12/20 00:36:09;;;;;;;28.52;20.15;;;;;;;3.26;75.51;100436.78;1088416;54;20030;-85
2022/12/20 00:37:17;;;;;;;34.67;22.35;;;;;;;3.23;75.62;100436.97;1090957;39;20626;-83
2022/12/20 00:38:19;;;;;;;34.28;22.42;;;;;;;3.17;75.91;100416.19;1088420;54;20041;-83
2022/12/20 00:39:23;;;;;;;34.92;24.10;;;;;;;3.12;75.95;100413.81;1088434;54;20975;-84
2022/12/20 00:40:25;;;;;;;37.63;24.33;;;;;;;3.15;76.10;100412.78;1103808;39;20641;-85
2022/12/20 00:41:42;;;;;;;34.25;22.45;;;;;;;3.18;76.10;100412.59;1092766;39;20684;-83
2022/12/20 00:42:44;;;;;;;32.30;21.38;;;;;;;3.22;75.92;100419.41;1088487;54;20026;-85
2022/12/20 00:43:51;;;;;;;28.35;19.60;;;;;;;3.28;75.68;100419.06;1088510;54;20031;-84
2022/12/20 00:44:53;;;;;;;30.65;20.67;;;;;;;3.31;75.53;100411.91;1093027;46;20053;-83
2022/12/20 00:45:57;;;;;;;28.50;18.98;;;;;;;3.36;75.42;100410.66;1088448;54;20034;-84
2022/12/20 00:47:01;;;;;;;34.78;22.83;;;;;;;3.28;75.57;100410.28;1088429;54;20046;-85
2022/12/20 00:48:04;;;;;;;32.58;21.67;;;;;;;3.28;75.59;100402.34;1088385;54;20034;-84
2022/12/20 00:49:08;;;;;;;32.47;20.58;;;;;;;3.22;75.73;100421.22;1088445;54;20057;-84
2022/12/20 00:50:10;;;;;;;36.80;23.58;;;;;;;3.07;76.64;100431.69;1088551;54;20046;-85
2022/12/20 00:51:17;;;;;;;33.13;21.90;;;;;;;3.20;76.34;100431.00;1088423;54;20018;-86
2022/12/20 00:52:18;;;;;;;30.73;20.83;;;;;;;3.30;76.10;100426.06;1088423;54;20038;-84
2022/12/20 00:53:32;;;;;;;31.27;21.45;;;;;;;3.34;75.81;100428.44;1088439;54;20035;-84
2022/12/20 00:54:36;;;;;;;29.90;20.25;;;;;;;3.34;75.79;100433.72;1088495;54;20030;-82
2022/12/20 00:55:59;;;;;;;31.33;19.67;;;;;;;3.35;75.50;100439.84;1088528;54;20070;-84
2022/12/20 00:57:04;;;;;;;32.97;20.75;;;;;;;3.35;75.52;100434.56;1088566;54;20045;-85
2022/12/20 00:58:19;;;;;;;32.70;20.90;;;;;;;3.35;75.58;100446.00;1088446;54;20085;-83
2022/12/20 00:59:27;;;;;;;30.55;20.45;;;;;;;3.33;75.50;100429.38;1089807;46;20018;-83
2022/12/20 01:00:32;;;;;;;31.88;20.88;;;;;;;3.32;75.67;100424.16;1088539;54;20034;-83
2022/12/20 01:01:50;;;;;;;33.55;22.10;;;;;;;3.24;76.32;100417.53;1088632;54;20021;-83
2022/12/20 01:02:52;;;;;;;38.03;23.75;;;;;;;3.23;76.46;100421.09;1088383;54;20018;-84
2022/12/20 01:05:53;;;;;;;32.58;19.70;;;;;;;3.28;76.49;100449.91;1088444;54;20019;-84
2022/12/20 01:06:57;;;;;;;29.27;19.77;;;;;;;3.28;76.36;100452.56;1094974;46;20041;-85
2022/12/20 01:08:03;;;;;;;29.10;18.92;;;;;;;3.35;76.20;100440.72;1088458;54;20026;-81
2022/12/20 01:09:08;;;;;;;33.03;21.15;;;;;;;3.29;76.24;100441.03;1088481;54;20026;-84
2022/12/20 01:10:11;;;;;;;29.50;19.65;;;;;;;3.30;76.30;100441.91;1088447;54;20023;-83
2022/12/20 01:11:17;;;;;;;34.30;20.98;;;;;;;3.30;76.53;100439.28;1088426;54;20058;-84
2022/12/20 01:12:19;;;;;;;32.88;21.70;;;;;;;3.33;76.68;100433.78;1088592;54;20027;-82
2022/12/20 01:13:30;;;;;;;32.33;20.55;;;;;;;3.36;76.43;100433.63;1093178;46;20023;-83
2022/12/20 01:14:37;;;;;;;31.67;19.85;;;;;;;3.38;76.46;100434.41;1088546;54;20171;-83
2022/12/20 01:15:39;;;;;;;31.70;20.15;;;;;;;3.34;76.49;100431.09;1088548;54;20034;-83
2022/12/20 01:16:50;;;;;;;34.35;22.67;;;;;;;3.30;76.51;100432.19;1088586;54;20033;-84
2022/12/20 01:17:54;;;;;;;;;;;;;;;3.23;77.28;100438.78;1090161;46;20018;-85
2022/12/20 01:19:06;;;;;;;35.22;21.65;;;;;;;3.21;77.36;100427.44;1103705;46;20023;-84
2022/12/20 01:20:09;;;;;;;33.10;21.88;;;;;;;3.22;77.05;100423.84;1088542;46;20068;-83
2022/12/20 01:21:17;;;;;;;30.45;21.77;;;;;;;3.23;77.40;100421.09;1096655;46;20041;-83
2022/12/20 01:22:19;;;;;;;35.47;20.95;;;;;;;3.31;76.87;100443.63;1089055;46;20026;-83
2022/12/20 01:23:36;;;;;;;31.42;19.70;;;;;;;3.33;77.23;100439.06;1088419;54;20030;-84
2022/12/20 01:24:37;;;;;;;27.30;18.83;;;;;;;3.38;76.77;100442.31;1088386;54;20082;-83
2022/12/20 01:25:46;;;;;;;30.20;18.90;;;;;;;3.35;76.91;100445.13;1088386;54;20027;-85
2022/12/20 01:26:48;;;;;;;31.38;19.67;;;;;;;3.45;76.56;100446.31;1088530;54;20029;-84
2022/12/20 01:27:52;;;;;;;31.25;19.85;;;;;;;3.41;76.84;100437.69;1088320;54;20050;-81
2022/12/20 01:28:55;;;;;;;30.92;19.00;;;;;;;3.38;76.81;100444.97;1088366;54;20046;-83
2022/12/20 01:30:02;;;;;;;32.58;21.02;;;;;;;3.32;77.41;100445.31;1088352;54;20033;-85
2022/12/20 01:31:06;;;;;;;31.20;19.92;;;;;;;3.44;77.12;100452.53;1088384;54;20040;-84
2022/12/20 01:32:10;;;;;;;30.00;19.05;;;;;;;3.50;76.81;100433.66;1088412;54;20030;-84
2022/12/20 01:33:12;;;;;;;29.55;17.77;;;;;;;3.54;76.64;100424.63;1088410;54;20022;-84
2022/12/20 01:34:25;;;;;;;30.48;19.77;;;;;;;3.47;76.94;100422.41;1088326;54;20803;-82
2022/12/20 01:35:27;;;;;;;28.38;18.42;;;;;;;3.50;76.98;100420.44;1088174;54;20022;-82
2022/12/20 01:36:38;;;;;;;31.85;21.02;;;;;;;3.45;77.05;100417.22;1088189;54;20010;-82
2022/12/20 01:37:40;;;;;;;32.50;21.17;;;;;;;3.43;77.22;100417.31;1088081;54;20082;-83
2022/12/20 01:38:48;;;;;;;32.60;20.02;;;;;;;3.42;77.29;100410.34;1088245;54;20771;-82
2022/12/20 01:39:50;;;;;;;33.50;21.35;;;;;;;3.41;77.19;100413.91;1088270;54;20031;-84
2022/12/20 01:41:01;;;;;;;35.10;22.55;;;;;;;3.31;77.77;100401.34;1088229;54;20057;-84
2022/12/20 01:42:05;;;;;;;;;;;;;;;3.26;78.60;100410.38;1088400;54;20015;-81
2022/12/20 01:43:16;;;;;;;32.28;20.30;;;;;;;3.30;78.02;100405.75;1088364;54;19991;-83
2022/12/20 01:44:59;;;;;;;30.55;19.17;;;;;;;3.35;77.71;100397.56;1088373;54;20025;-83
2022/12/20 01:46:06;;;;;;;30.25;18.80;;;;;;;3.33;77.96;100413.50;1087900;54;20018;-84
2022/12/20 01:47:11;;;;;;;33.28;20.88;;;;;;;3.27;78.19;100421.78;1088263;54;20027;-83
2022/12/20 01:48:15;;;;;;;34.08;21.20;;;;;;;3.24;78.39;100414.88;1089309;46;20111;-82
2022/12/20 01:49:24;;;;;;;34.53;21.38;;;;;;;3.33;78.41;100428.50;1088309;54;20354;-85
2022/12/20 01:50:26;;;;;;;34.35;21.80;;;;;;;3.25;78.67;100427.16;1088247;54;20044;-84
2022/12/20 01:51:40;;;;;;;34.53;22.40;;;;;;;3.19;79.40;100432.81;1088240;54;20061;-83
2022/12/20 01:52:46;;;;;;;30.02;19.88;;;;;;;3.33;78.87;100415.28;1088298;54;20042;-82
2022/12/20 01:53:57;;;;;;;28.88;19.35;;;;;;;3.43;78.46;100419.09;1088251;54;20030;-81
2022/12/20 01:55:06;;;;;;;29.83;19.90;;;;;;;3.45;78.21;100419.03;1088254;54;20030;-84
2022/12/20 01:56:12;;;;;;;29.63;20.00;;;;;;;3.43;78.31;100419.09;1088294;54;20061;-84
2022/12/20 01:57:17;;;;;;;31.40;19.90;;;;;;;3.47;78.04;100423.28;1088233;54;20061;-82
2022/12/20 01:58:23;;;;;;;31.35;20.50;;;;;;;3.49;77.88;100416.13;1088258;54;20026;-83
2022/12/20 01:59:26;;;;;;;29.55;20.17;;;;;;;3.47;77.98;100411.84;1088228;54;20028;-84
2022/12/20 02:00:40;;;;;;;31.83;20.92;;;;;;;3.38;78.42;100403.50;1088229;54;20018;-82
2022/12/20 02:01:45;;;;;;;32.35;21.95;;;;;;;3.33;78.66;100410.00;1088286;54;20035;-82
2022/12/20 02:02:51;;;;;;;31.08;21.20;;;;;;;3.32;78.71;100405.66;1088229;54;20034;-82
2022/12/20 02:03:55;;;;;;;35.95;21.80;;;;;;;3.27;78.87;100408.56;1088266;54;20047;-84
2022/12/20 02:04:59;;;;;;;36.03;23.42;;;;;;;3.26;78.92;100405.09;1088344;46;20092;-83
2022/12/20 02:06:14;;;;;;;36.10;22.23;;;;;;;3.24;79.22;100406.13;1088092;54;20034;-85
2022/12/20 02:07:22;;;;;;;34.92;22.75;;;;;;;3.26;79.35;100404.22;1088202;54;20046;-83
2022/12/20 02:08:24;;;;;;;32.53;20.63;;;;;;;3.25;79.16;100397.25;1088248;54;20108;-86
2022/12/20 02:09:34;;;;;;;31.88;20.25;;;;;;;3.32;78.97;100398.59;1088220;54;20127;-82
2022/12/20 02:10:49;;;;;;;31.98;20.40;;;;;;;3.27;79.17;100401.50;1088141;54;20062;-84
2022/12/20 02:12:10;;;;;;;33.83;21.05;;;;;;;3.28;79.68;100403.22;1088235;54;20110;-83
2022/12/20 02:13:22;;;;;;;29.52;19.02;;;;;;;3.34;79.16;100401.13;1095395;39;20642;-83
2022/12/20 02:14:48;;;;;;;32.03;19.90;;;;;;;3.32;79.14;100397.72;1089912;39;20574;-83
2022/12/20 02:15:54;;;;;;;29.27;19.38;;;;;;;3.31;79.23;100401.34;1088258;54;20018;-83
2022/12/20 02:17:09;;;;;;;30.42;19.45;;;;;;;3.31;79.46;100406.63;1088250;54;20019;-85
2022/12/20 02:18:21;;;;;;;28.33;18.65;;;;;;;3.40;78.75;100398.16;1092287;39;20728;-84
2022/12/20 02:19:52;;;;;;;31.75;19.65;;;;;;;3.41;78.72;100389.25;1088222;54;20018;-82
2022/12/20 02:21:16;;;;;;;28.13;18.80;;;;;;;3.30;79.21;100405.75;1088130;54;20042;-83
2022/12/20 02:22:29;;;;;;;26.48;18.08;;;;;;;3.40;79.17;100398.16;1088320;54;20049;-83
2022/12/20 02:24:06;;;;;;;26.30;16.98;;;;;;;3.45;78.88;100398.72;1088322;54;20034;-83
2022/12/20 02:25:33;;;;;;;27.00;16.23;;;;;;;3.48;78.78;100395.91;1087912;54;20056;-83
2022/12/20 02:26:58;;;;;;;24.88;16.85;;;;;;;3.50;78.71;100401.94;1087908;54;20791;-83
2022/12/20 02:28:13;;;;;;;25.25;16.00;;;;;;;3.57;78.43;100398.00;1088316;54;20022;-83
2022/12/20 02:29:26;;;;;;;24.13;15.65;;;;;;;3.58;78.46;100394.44;1088270;54;20038;-84
2022/12/20 02:30:36;;;;;;;26.33;18.20;;;;;;;3.55;78.23;100388.44;1088208;54;20717;-83
2022/12/20 02:31:42;;;;;;;29.38;18.23;;;;;;;3.48;78.61;100377.41;1088269;54;20031;-83
2022/12/20 02:33:01;;;;;;;32.95;20.95;;;;;;;3.39;79.03;100373.50;1088268;54;20041;-84
2022/12/20 02:34:04;;;;;;;29.75;19.67;;;;;;;3.43;78.88;100379.44;1088238;54;20039;-84
2022/12/20 02:35:12;;;;;;;29.88;18.58;;;;;;;3.49;78.90;100379.09;1088270;54;20078;-82
2022/12/20 02:36:14;;;;;;;26.63;17.65;;;;;;;3.51;78.50;100377.19;1088327;54;20019;-83
2022/12/20 02:37:18;;;;;;;36.20;21.67;;;;;;;3.46;78.80;100374.00;1088306;54;20041;-83
2022/12/20 02:38:27;;;;;;;30.55;20.00;;;;;;;3.39;79.31;100367.38;1088238;54;20026;-83
2022/12/20 02:39:33;;;;;;;32.00;20.55;;;;;;;3.38;79.17;100365.66;1088324;54;20041;-83
2022/12/20 02:40:43;;;;;;;34.78;21.63;;;;;;;3.34;79.24;100367.66;1088256;54;20045;-84
2022/12/20 02:41:53;;;;;;;37.47;23.52;;;;;;;3.30;79.42;100355.53;1088314;54;20019;-85
2022/12/20 02:43:00;;;;;;;31.58;21.00;;;;;;;3.31;79.40;100364.34;1088281;54;20035;-82
2022/12/20 02:45:38;;;;;;;34.35;21.65;;;;;;;3.26;79.85;100352.22;1088306;54;20034;-83
2022/12/20 02:46:41;;;;;;;31.02;20.55;;;;;;;3.30;79.54;100352.06;1088231;54;20026;-83
2022/12/20 02:47:57;;;;;;;33.15;20.73;;;;;;;3.26;79.83;100351.38;1088285;54;20019;-83
2022/12/20 02:49:02;;;;;;;33.10;21.92;;;;;;;3.25;79.85;100350.53;1090870;39;20693;-83
2022/12/20 02:50:10;;;;;;;32.42;20.92;;;;;;;3.26;79.71;100352.22;1088267;54;20030;-85
2022/12/20 02:51:17;;;;;;;33.55;22.17;;;;;;;3.23;79.85;100352.41;1088230;54;20030;-82
2022/12/20 02:52:25;;;;;;;33.55;21.98;;;;;;;3.23;79.99;100357.69;1088300;54;20018;-84
2022/12/20 02:53:28;;;;;;;29.88;20.85;;;;;;;3.28;79.62;100347.72;1088220;54;20023;-84
2022/12/20 02:54:38;;;;;;;31.17;20.30;;;;;;;3.32;79.74;100360.72;1088194;54;20094;-83
2022/12/20 02:55:50;;;;;;;27.75;18.88;;;;;;;3.36;79.53;100356.97;1088319;54;20037;-81
2022/12/20 02:56:59;;;;;;;26.42;18.02;;;;;;;3.40;79.43;100353.22;1088263;54;20038;-83
2022/12/20 02:58:11;;;;;;;25.23;16.58;;;;;;;3.45;79.05;100366.16;1088349;54;20018;-82
2022/12/20 02:59:18;;;;;;;28.95;18.35;;;;;;;3.47;79.28;100362.47;1087702;54;20030;-83
2022/12/20 03:00:24;;;;;;;25.38;17.95;;;;;;;3.49;79.13;100357.97;1088247;54;20041;-83
2022/12/20 03:01:32;;;;;;;27.20;17.10;;;;;;;3.49;79.18;100344.75;1088404;54;20033;-83
2022/12/20 03:04:03;;;;;;;27.77;18.02;;;;;;;3.52;78.84;100341.91;1088351;54;20037;-82
2022/12/20 03:05:08;;;;;;;27.25;18.20;;;;;;;3.55;78.79;100328.50;1090088;46;20054;-84
2022/12/20 03:06:13;;;;;;;24.45;17.40;;;;;;;3.55;78.95;100338.22;1088324;54;20053;-83
2022/12/20 03:07:15;;;;;;;28.45;16.75;;;;;;;3.59;78.93;100342.38;1088269;54;20035;-82
2022/12/20 03:08:20;;;;;;;27.58;17.38;;;;;;;3.54;78.73;100334.72;1088346;54;20019;-83
2022/12/20 03:09:25;;;;;;;30.05;20.05;;;;;;;3.50;79.06;100343.78;1088270;54;20022;-84
2022/12/20 03:10:30;;;;;;;27.90;18.10;;;;;;;3.47;79.26;100336.06;1088266;54;20015;-85
2022/12/20 03:11:36;;;;;;;28.92;18.55;;;;;;;3.49;79.06;100344.75;1088328;54;20737;-85
2022/12/20 03:12:38;;;;;;;28.70;18.77;;;;;;;3.51;79.17;100337.56;1088178;54;20038;-83
2022/12/20 03:13:43;;;;;;;26.63;18.52;;;;;;;3.54;78.93;100332.09;1088228;54;20911;-85
2022/12/20 03:14:44;;;;;;;28.45;17.92;;;;;;;3.57;78.86;100329.28;1088157;54;20065;-85
2022/12/20 03:15:54;;;;;;;24.83;17.15;;;;;;;3.62;78.79;100330.75;1088198;54;20027;-83
2022/12/20 03:16:59;;;;;;;24.20;15.90;;;;;;;3.59;78.79;100332.66;1088302;54;20832;-83
2022/12/20 03:18:04;;;;;;;26.38;16.63;;;;;;;3.65;78.63;100325.31;1088281;54;20287;-84
2022/12/20 03:19:06;;;;;;;24.55;16.95;;;;;;;3.67;78.69;100329.53;1088254;54;20045;-83
2022/12/20 03:20:12;;;;;;;24.08;16.35;;;;;;;3.72;78.51;100321.34;1088144;54;20090;-82
2022/12/20 03:21:14;;;;;;;28.70;18.35;;;;;;;3.62;78.75;100309.63;1088744;31;20799;-82
2022/12/20 03:22:18;;;;;;;32.45;21.50;;;;;;;3.56;79.18;100306.41;1087988;54;20050;-82
2022/12/20 03:23:20;;;;;;;32.60;21.98;;;;;;;3.50;79.40;100304.13;1088171;54;20038;-85
2022/12/20 03:24:25;;;;;;;28.08;19.02;;;;;;;3.54;79.50;100305.66;1088187;54;20038;-82
2022/12/20 03:25:27;;;;;;;30.02;18.58;;;;;;;3.58;79.16;100307.19;1088047;54;20058;-82
2022/12/20 03:26:35;;;;;;;29.95;18.80;;;;;;;3.61;79.16;100318.50;1088161;54;20030;-82
2022/12/20 03:27:37;;;;;;;27.58;18.00;;;;;;;3.64;79.31;100328.88;1088172;54;20018;-83
2022/12/20 03:28:48;;;;;;;25.60;17.38;;;;;;;3.60;79.23;100328.22;1088389;47;20057;-83
2022/12/20 03:29:50;;;;;;;29.17;19.20;;;;;;;3.60;79.47;100330.88;1088165;54;20041;-83
2022/12/20 03:30:56;;;;;;;28.30;18.05;;;;;;;3.67;79.22;100334.00;1088242;54;20038;-83
2022/12/20 03:32:01;;;;;;;30.48;19.05;;;;;;;3.58;79.20;100332.75;1089077;39;20696;-84
2022/12/20 03:33:05;;;;;;;31.27;19.38;;;;;;;3.56;79.40;100324.06;1088187;54;20019;-82
2022/12/20 03:34:07;;;;;;;29.60;19.23;;;;;;;3.57;79.29;100339.84;1088127;54;20098;-84
2022/12/20 03:35:14;;;;;;;29.65;20.00;;;;;;;3.54;79.13;100337.38;1088210;54;20050;-83
2022/12/20 03:36:15;;;;;;;29.20;18.83;;;;;;;3.57;79.30;100341.63;1088158;54;20041;-84
2022/12/20 03:37:29;;;;;;;28.98;19.17;;;;;;;3.52;79.36;100336.59;1088173;54;20042;-84
2022/12/20 03:38:30;;;;;;;32.95;21.85;;;;;;;3.45;79.60;100335.28;1088212;54;20765;-83
2022/12/20 03:39:39;;;;;;;31.25;20.10;;;;;;;3.39;79.78;100323.28;1088174;54;20046;-85
2022/12/20 03:40:43;;;;;;;34.20;20.33;;;;;;;3.40;80.03;100337.38;1088165;54;20066;-82
2022/12/20 03:41:56;;;;;;;29.50;20.33;;;;;;;3.43;79.78;100321.31;1088210;54;20026;-85
2022/12/20 03:42:58;;;;;;;31.65;18.55;;;;;;;3.49;79.67;100328.88;1088202;54;20042;-83
2022/12/20 03:44:02;;;;;;;29.35;18.83;;;;;;;3.52;79.66;100320.75;1088184;54;20040;-84
2022/12/20 03:45:05;;;;;;;31.23;19.90;;;;;;;3.51;79.53;100320.84;1088093;54;20074;-85
2022/12/20 03:46:10;;;;;;;26.02;17.77;;;;;;;3.55;79.48;100325.88;1088033;54;20057;-83
2022/12/20 03:47:14;;;;;;;30.92;19.98;;;;;;;3.52;79.48;100322.56;1088024;54;20042;-83
2022/12/20 03:48:32;;;;;;;29.15;18.77;;;;;;;3.52;79.72;100336.59;1087906;54;20055;-84
2022/12/20 03:49:34;;;;;;;30.02;18.33;;;;;;;3.53;79.49;100333.03;1088086;54;20023;-84
2022/12/20 03:50:38;;;;;;;28.70;17.05;;;;;;;3.59;79.47;100331.81;1088082;54;20038;-83
2022/12/20 03:51:46;;;;;;;27.30;17.52;;;;;;;3.65;79.54;100320.00;1088053;54;20034;-84
2022/12/20 03:53:00;;;;;;;26.67;16.90;;;;;;;3.64;79.08;100313.03;1088076;54;20026;-83
2022/12/20 03:54:08;;;;;;;25.50;16.55;;;;;;;3.65;79.07;100322.66;1092077;39;20724;-82
2022/12/20 03:55:20;;;;;;;25.35;17.13;;;;;;;3.63;79.29;100316.59;1088067;54;20018;-83
2022/12/20 03:56:31;;;;;;;23.67;16.13;;;;;;;3.67;79.34;100313.69;1088074;54;20042;-83
2022/12/20 03:57:37;;;;;;;;;;;;;;;3.63;79.34;100306.91;1088243;54;20089;-82
2022/12/20 03:58:39;;;;;;;25.20;15.35;;;;;;;3.67;79.29;100315.50;1088105;54;19942;-82
2022/12/20 03:59:45;;;;;;;24.83;15.93;;;;;;;3.69;79.33;100313.56;1087768;54;20090;-83
2022/12/20 04:00:52;;;;;;;28.85;17.25;;;;;;;3.69;79.05;100309.16;1088181;54;20070;-82
2022/12/20 04:01:57;;;;;;;28.00;18.10;;;;;;;3.70;79.29;100296.78;1088176;54;20038;-83
2022/12/20 04:03:15;;;;;;;24.30;16.95;;;;;;;3.68;79.19;100303.97;1088131;54;20019;-83
2022/12/20 04:04:17;;;;;;;26.63;16.63;;;;;;;3.68;79.22;100293.41;1088144;54;20015;-84
2022/12/20 04:05:21;;;;;;;24.80;16.35;;;;;;;3.70;79.17;100297.63;1088167;54;20035;-82
2022/12/20 04:06:33;;;;;;;24.90;16.30;;;;;;;3.71;79.22;100294.06;1088070;54;20027;-82
2022/12/20 04:07:38;;;;;;;22.83;16.17;;;;;;;3.74;79.24;100293.00;1088136;54;20034;-84
2022/12/20 04:08:39;;;;;;;25.38;17.08;;;;;;;3.72;78.88;100290.47;1088162;54;20034;-82
2022/12/20 04:09:44;;;;;;;29.80;17.90;;;;;;;3.74;78.98;100296.47;1091598;39;20805;-83
2022/12/20 04:12:05;;;;;;;26.83;18.05;;;;;;;3.77;78.97;100298.13;1087910;54;20086;-85
2022/12/20 04:13:08;;;;;;;27.70;17.63;;;;;;;3.73;79.04;100293.94;1087903;54;20015;-85
2022/12/20 04:14:13;;;;;;;27.50;18.70;;;;;;;3.65;79.25;100289.13;1087911;54;20796;-82
2022/12/20 04:15:15;;;;;;;26.90;18.08;;;;;;;3.68;79.22;100294.22;1087909;54;20027;-84
2022/12/20 04:16:21;;;;;;;27.67;19.60;;;;;;;3.71;79.21;100295.81;1087836;54;20014;-84
2022/12/20 04:17:23;;;;;;;26.13;18.42;;;;;;;3.71;79.02;100306.41;1087834;54;20043;-84
2022/12/20 04:18:30;;;;;;;32.40;20.13;;;;;;;3.67;79.17;100296.97;1087830;54;20068;-84
2022/12/20 04:19:32;;;;;;;30.05;19.52;;;;;;;3.62;79.57;100293.75;1087632;54;20018;-84
2022/12/20 04:20:36;;;;;;;28.67;18.45;;;;;;;3.58;79.53;100290.44;1087557;54;20030;-83
2022/12/20 04:21:38;;;;;;;30.60;19.25;;;;;;;3.63;79.40;100295.44;1087369;54;20018;-83
2022/12/20 04:22:43;;;;;;;28.75;19.02;;;;;;;3.63;79.32;100300.75;1087576;54;20098;-83
2022/12/20 04:23:45;;;;;;;27.08;19.33;;;;;;;3.59;79.39;100287.69;1087510;54;20055;-83
2022/12/20 04:24:49;;;;;;;26.33;19.13;;;;;;;3.59;79.41;100284.22;1087660;54;20034;-82
2022/12/20 04:26:00;;;;;;;32.33;19.08;;;;;;;3.55;79.59;100288.84;1087774;54;20030;-82
2022/12/20 04:27:04;;;;;;;;;;;;;;;3.49;80.03;100288.38;1087779;54;20034;-85
2022/12/20 04:28:06;;;;;;;29.98;18.60;;;;;;;3.54;79.96;100296.88;1087645;54;19936;-84
2022/12/20 04:29:10;;;;;;;27.27;16.90;;;;;;;3.57;79.49;100297.53;1087688;54;20126;-82
2022/12/20 04:30:13;;;;;;;27.80;18.85;;;;;;;3.59;79.36;100297.44;1087815;54;20033;-83
2022/12/20 04:31:17;;;;;;;25.02;16.85;;;;;;;3.61;79.51;100290.28;1087762;54;20039;-83
2022/12/20 04:32:24;;;;;;;30.80;19.15;;;;;;;3.59;79.71;100290.34;1087769;54;20027;-84
2022/12/20 04:33:29;;;;;;;32.22;19.42;;;;;;;3.52;80.20;100282.91;1087799;54;20051;-84
2022/12/20 04:34:33;;;;;;;34.90;20.30;;;;;;;3.50;80.14;100282.13;1087733;54;20061;-83
2022/12/20 04:35:36;;;;;;;29.98;19.70;;;;;;;3.51;80.10;100281.19;1090123;39;20650;-83
2022/12/20 04:36:41;;;;;;;31.52;18.33;;;;;;;3.54;80.19;100284.50;1087805;54;20065;-85
2022/12/20 04:37:42;;;;;;;28.35;18.05;;;;;;;3.59;79.83;100284.22;1088054;54;20844;-84
2022/12/20 04:38:47;;;;;;;28.40;19.13;;;;;;;3.55;80.02;100286.19;1088760;39;20563;-83
2022/12/20 04:39:49;;;;;;;26.25;19.25;;;;;;;3.52;80.31;100288.19;1088286;54;20094;-82
2022/12/20 04:40:55;;;;;;;32.47;20.33;;;;;;;3.47;80.68;100280.53;1088361;54;20019;-84
2022/12/20 04:41:57;;;;;;;29.83;20.58;;;;;;;3.47;80.40;100282.31;1088391;54;20042;-84
2022/12/20 04:43:07;;;;;;;33.53;21.45;;;;;;;3.48;80.80;100284.03;1088291;54;20105;-85
2022/12/20 04:44:11;;;;;;;30.48;20.83;;;;;;;3.43;80.78;100284.31;1088413;54;20042;-84
2022/12/20 04:45:17;;;;;;;31.15;20.50;;;;;;;3.48;80.71;100279.59;1088363;54;20066;-82
2022/12/20 04:46:20;;;;;;;29.45;19.75;;;;;;;3.49;80.62;100280.44;1088382;54;20046;-85
2022/12/20 04:47:24;;;;;;;34.10;19.63;;;;;;;3.53;80.55;100274.88;1088341;54;20046;-84
2022/12/20 04:48:29;;;;;;;32.28;19.77;;;;;;;3.54;80.42;100271.28;1088263;54;20694;-83
2022/12/20 04:49:33;;;;;;;26.75;19.35;;;;;;;3.53;80.48;100272.22;1094963;39;20634;-84
2022/12/20 04:50:35;;;;;;;28.98;18.52;;;;;;;3.56;80.16;100269.41;1088363;54;20035;-85
2022/12/20 04:51:42;;;;;;;29.73;18.17;;;;;;;3.58;80.27;100272.81;1088373;54;20019;-84
2022/12/20 04:54:00;;;;;;;27.15;19.17;;;;;;;3.56;80.25;100264.13;1088336;54;20034;-83
2022/12/20 04:55:09;;;;;;;28.58;18.58;;;;;;;3.56;80.39;100264.13;1088352;54;20022;-83
2022/12/20 04:56:13;;;;;;;31.05;19.80;;;;;;;3.49;80.59;100257.50;1088390;54;20042;-83
2022/12/20 04:57:15;;;;;;;33.08;22.02;;;;;;;3.49;80.82;100261.94;1090391;46;20045;-83
2022/12/20 04:58:19;;;;;;;29.88;19.38;;;;;;;3.49;80.73;100257.50;1089887;39;20629;-82
2022/12/20 04:59:21;;;;;;;33.58;20.85;;;;;;;3.45;80.98;100253.34;1088418;54;20037;-82
2022/12/20 05:00:25;;;;;;;36.33;22.30;;;;;;;3.39;81.42;100256.38;1087772;54;20029;-85
2022/12/20 05:01:27;;;;;;;30.67;20.60;;;;;;;3.36;81.67;100257.38;1088690;46;20030;-84
2022/12/20 05:02:39;;;;;;;35.13;21.33;;;;;;;3.38;81.77;100257.31;1088411;54;20033;-83
2022/12/20 05:04:00;;;;;;;38.70;23.20;;;;;;;3.35;82.03;100252.19;1088400;54;20034;-85
2022/12/20 05:05:12;;;;;;;30.00;18.98;;;;;;;3.38;81.54;100258.16;1088340;54;20781;-87
2022/12/20 05:06:29;;;;;;;35.90;22.70;;;;;;;3.40;81.51;100252.78;1088418;54;20034;-83
2022/12/20 05:07:40;;;;;;;31.40;20.33;;;;;;;3.41;81.64;100250.03;1088252;54;20058;-83
2022/12/20 05:09:00;;;;;;;31.27;19.83;;;;;;;3.45;81.38;100250.69;1087975;54;20041;-83
2022/12/20 05:10:20;;;;;;;28.25;17.90;;;;;;;3.48;81.13;100255.81;1088398;54;20027;-84
2022/12/20 05:11:29;;;;;;;27.50;17.45;;;;;;;3.51;80.93;100252.94;1088329;54;20095;-82
2022/12/20 05:12:39;;;;;;;29.25;17.75;;;;;;;3.56;81.09;100260.59;1088305;54;20023;-83
2022/12/20 05:14:02;;;;;;;26.25;17.55;;;;;;;3.58;80.67;100246.38;1088050;54;20015;-84
2022/12/20 05:15:18;;;;;;;24.25;16.42;;;;;;;3.57;80.84;100260.53;1088289;54;20050;-83
2022/12/20 05:16:23;;;;;;;23.65;15.50;;;;;;;3.63;81.03;100261.09;1088236;54;20034;-83